sensor_id;sensor_type;location;lat;lon;timestamp;temperature;humidity
11538;DHT22;50159;49.426;11.182;2023-04-15T00:01:10;4.90;99.90
11538;DHT22;50159;49.426;11.182;2023-04-15T00:03:37;4.90;99.90
11538;DHT22;50159;49.426;11.182;2023-04-15T00:06:05;4.90;99.90
11538;DHT22;50159;49.426;11.182;2023-04-15T00:08:32;4.90;99.90
11538;DHT22;50159;49.426;11.182;2023-04-15T00:10:59;4.90;99.90
11538;DHT22;50159;49.426;11.182;2023-04-15T00:13:28;4.90;99.90
11538;DHT22;50159;49.426;11.182;2023-04-15T00:15:55;4.90;99.90
11538;DHT22;50159;49.426;11.182;2023-04-15T00:18:23;4.90;99.90
11538;DHT22;50159;49.426;11.182;2023-04-15T00:20:50;4.90;99.90
11538;DHT22;50159;49.426;11.182;2023-04-15T00:23:18;4.90;99.90
11538;DHT22;50159;49.426;11.182;2023-04-15T00:25:45;4.90;99.90
11538;DHT22;50159;49.426;11.182;2023-04-15T00:28:12;4.90;99.90
11538;DHT22;50159;49.426;11.182;2023-04-15T00:30:39;4.80;99.90
11538;DHT22;50159;49.426;11.182;2023-04-15T00:33:06;4.80;99.90
11538;DHT22;50159;49.426;11.182;2023-04-15T00:35:33;4.80;99.90
11538;DHT22;50159;49.426;11.182;2023-04-15T00:38:01;4.80;99.90
11538;DHT22;50159;49.426;11.182;2023-04-15T00:40:28;4.90;99.90
11538;DHT22;50159;49.426;11.182;2023-04-15T00:42:55;4.90;99.90
11538;DHT22;50159;49.426;11.182;2023-04-15T00:45:24;4.90;99.90
11538;DHT22;50159;49.426;11.182;2023-04-15T00:47:52;4.90;99.90
11538;DHT22;50159;49.426;11.182;2023-04-15T00:50:19;4.90;99.90
11538;DHT22;50159;49.426;11.182;2023-04-15T00:52:46;4.90;99.90
11538;DHT22;50159;49.426;11.182;2023-04-15T00:55:13;4.90;99.90
11538;DHT22;50159;49.426;11.182;2023-04-15T00:57:47;4.90;99.90
11538;DHT22;50159;49.426;11.182;2023-04-15T01:00:14;4.90;99.90
11538;DHT22;50159;49.426;11.182;2023-04-15T01:02:42;4.90;99.90
11538;DHT22;50159;49.426;11.182;2023-04-15T01:05:09;4.90;99.90
11538;DHT22;50159;49.426;11.182;2023-04-15T01:07:36;4.80;99.90
11538;DHT22;50159;49.426;11.182;2023-04-15T01:10:03;4.80;99.90
11538;DHT22;50159;49.426;11.182;2023-04-15T01:12:31;4.80;99.90
11538;DHT22;50159;49.426;11.182;2023-04-15T01:15:00;4.80;99.90
11538;DHT22;50159;49.426;11.182;2023-04-15T01:17:28;4.80;99.90
11538;DHT22;50159;49.426;11.182;2023-04-15T01:19:55;4.80;99.90
11538;DHT22;50159;49.426;11.182;2023-04-15T01:22:26;4.80;99.90
11538;DHT22;50159;49.426;11.182;2023-04-15T01:25:04;4.80;99.90
11538;DHT22;50159;49.426;11.182;2023-04-15T01:27:34;4.80;99.90
11538;DHT22;50159;49.426;11.182;2023-04-15T01:30:05;4.80;99.90
11538;DHT22;50159;49.426;11.182;2023-04-15T01:32:33;4.80;99.90
11538;DHT22;50159;49.426;11.182;2023-04-15T01:35:00;4.80;99.90
11538;DHT22;50159;49.426;11.182;2023-04-15T01:37:26;4.90;99.90
11538;DHT22;50159;49.426;11.182;2023-04-15T01:39:54;4.90;99.90
11538;DHT22;50159;49.426;11.182;2023-04-15T01:42:23;4.90;99.90
11538;DHT22;50159;49.426;11.182;2023-04-15T01:44:49;4.90;99.90
11538;DHT22;50159;49.426;11.182;2023-04-15T01:47:16;4.80;99.90
11538;DHT22;50159;49.426;11.182;2023-04-15T01:49:43;4.90;99.90
11538;DHT22;50159;49.426;11.182;2023-04-15T01:52:10;4.80;99.90
11538;DHT22;50159;49.426;11.182;2023-04-15T01:54:36;4.80;99.90
11538;DHT22;50159;49.426;11.182;2023-04-15T01:57:03;4.90;99.90
11538;DHT22;50159;49.426;11.182;2023-04-15T01:59:30;4.90;99.90
11538;DHT22;50159;49.426;11.182;2023-04-15T02:01:57;4.90;99.90
11538;DHT22;50159;49.426;11.182;2023-04-15T02:04:25;4.90;99.90
11538;DHT22;50159;49.426;11.182;2023-04-15T02:06:52;4.90;99.90
11538;DHT22;50159;49.426;11.182;2023-04-15T02:09:19;4.90;99.90
11538;DHT22;50159;49.426;11.182;2023-04-15T02:11:45;4.90;99.90
11538;DHT22;50159;49.426;11.182;2023-04-15T02:14:12;4.90;99.90
11538;DHT22;50159;49.426;11.182;2023-04-15T02:16:39;4.90;99.90
11538;DHT22;50159;49.426;11.182;2023-04-15T02:19:06;5.00;99.90
11538;DHT22;50159;49.426;11.182;2023-04-15T02:21:33;5.00;99.90
11538;DHT22;50159;49.426;11.182;2023-04-15T02:24:00;5.00;99.90
11538;DHT22;50159;49.426;11.182;2023-04-15T02:26:27;5.00;99.90
11538;DHT22;50159;49.426;11.182;2023-04-15T02:28:57;5.00;99.90
11538;DHT22;50159;49.426;11.182;2023-04-15T02:31:25;4.90;99.90
11538;DHT22;50159;49.426;11.182;2023-04-15T02:33:52;4.90;99.90
11538;DHT22;50159;49.426;11.182;2023-04-15T02:36:19;4.90;99.90
11538;DHT22;50159;49.426;11.182;2023-04-15T02:38:46;4.90;99.90
11538;DHT22;50159;49.426;11.182;2023-04-15T02:41:13;4.90;99.90
11538;DHT22;50159;49.426;11.182;2023-04-15T02:43:40;4.90;99.90
11538;DHT22;50159;49.426;11.182;2023-04-15T02:46:07;4.90;99.90
11538;DHT22;50159;49.426;11.182;2023-04-15T02:48:34;4.90;99.90
11538;DHT22;50159;49.426;11.182;2023-04-15T02:51:18;4.90;99.90
11538;DHT22;50159;49.426;11.182;2023-04-15T02:53:46;5.00;99.90
11538;DHT22;50159;49.426;11.182;2023-04-15T02:56:14;5.00;99.90
11538;DHT22;50159;49.426;11.182;2023-04-15T02:58:43;5.00;99.90
11538;DHT22;50159;49.426;11.182;2023-04-15T03:01:10;5.00;99.90
11538;DHT22;50159;49.426;11.182;2023-04-15T03:03:37;5.00;99.90
11538;DHT22;50159;49.426;11.182;2023-04-15T03:06:04;4.90;99.90
11538;DHT22;50159;49.426;11.182;2023-04-15T03:08:31;5.00;99.90
11538;DHT22;50159;49.426;11.182;2023-04-15T03:10:58;5.00;99.90
11538;DHT22;50159;49.426;11.182;2023-04-15T03:13:26;5.00;99.90
11538;DHT22;50159;49.426;11.182;2023-04-15T03:15:53;4.90;99.90
11538;DHT22;50159;49.426;11.182;2023-04-15T03:18:20;4.90;99.90
11538;DHT22;50159;49.426;11.182;2023-04-15T03:20:47;5.00;99.90
11538;DHT22;50159;49.426;11.182;2023-04-15T03:23:13;5.00;99.90
11538;DHT22;50159;49.426;11.182;2023-04-15T03:25:40;5.00;99.90
11538;DHT22;50159;49.426;11.182;2023-04-15T03:28:07;5.00;99.90
11538;DHT22;50159;49.426;11.182;2023-04-15T03:30:34;4.90;99.90
11538;DHT22;50159;49.426;11.182;2023-04-15T03:33:01;4.90;99.90
11538;DHT22;50159;49.426;11.182;2023-04-15T03:35:28;4.90;99.90
11538;DHT22;50159;49.426;11.182;2023-04-15T03:37:55;4.90;99.90
11538;DHT22;50159;49.426;11.182;2023-04-15T03:40:21;4.90;99.90
11538;DHT22;50159;49.426;11.182;2023-04-15T03:42:48;4.90;99.90
11538;DHT22;50159;49.426;11.182;2023-04-15T03:45:15;4.90;99.90
11538;DHT22;50159;49.426;11.182;2023-04-15T03:47:42;4.90;99.90
11538;DHT22;50159;49.426;11.182;2023-04-15T03:50:09;4.90;99.90
11538;DHT22;50159;49.426;11.182;2023-04-15T03:52:36;4.90;99.90
11538;DHT22;50159;49.426;11.182;2023-04-15T03:55:03;4.90;99.90
11538;DHT22;50159;49.426;11.182;2023-04-15T03:57:30;4.90;99.90
11538;DHT22;50159;49.426;11.182;2023-04-15T03:59:57;5.00;99.90
11538;DHT22;50159;49.426;11.182;2023-04-15T04:02:24;5.00;99.90
11538;DHT22;50159;49.426;11.182;2023-04-15T04:04:51;5.00;99.90
11538;DHT22;50159;49.426;11.182;2023-04-15T04:07:18;5.00;99.90
11538;DHT22;50159;49.426;11.182;2023-04-15T04:09:45;5.00;99.90
11538;DHT22;50159;49.426;11.182;2023-04-15T04:12:13;5.00;99.90
11538;DHT22;50159;49.426;11.182;2023-04-15T04:14:43;4.90;99.90
11538;DHT22;50159;49.426;11.182;2023-04-15T04:17:09;4.90;99.90
11538;DHT22;50159;49.426;11.182;2023-04-15T04:19:36;4.90;99.90
11538;DHT22;50159;49.426;11.182;2023-04-15T04:22:03;4.90;99.90
11538;DHT22;50159;49.426;11.182;2023-04-15T04:24:30;4.90;99.90
11538;DHT22;50159;49.426;11.182;2023-04-15T04:26:57;4.90;99.90
11538;DHT22;50159;49.426;11.182;2023-04-15T04:29:23;4.90;99.90
11538;DHT22;50159;49.426;11.182;2023-04-15T04:31:50;4.90;99.90
11538;DHT22;50159;49.426;11.182;2023-04-15T04:34:17;5.00;99.90
11538;DHT22;50159;49.426;11.182;2023-04-15T04:36:44;5.00;99.90
11538;DHT22;50159;49.426;11.182;2023-04-15T04:39:11;4.90;99.90
11538;DHT22;50159;49.426;11.182;2023-04-15T04:41:38;5.00;99.90
11538;DHT22;50159;49.426;11.182;2023-04-15T04:44:04;5.00;99.90
11538;DHT22;50159;49.426;11.182;2023-04-15T04:46:31;5.00;99.90
11538;DHT22;50159;49.426;11.182;2023-04-15T04:48:58;5.00;99.90
11538;DHT22;50159;49.426;11.182;2023-04-15T04:51:25;5.00;99.90
11538;DHT22;50159;49.426;11.182;2023-04-15T04:53:52;5.10;99.90
11538;DHT22;50159;49.426;11.182;2023-04-15T04:56:19;5.10;99.90
11538;DHT22;50159;49.426;11.182;2023-04-15T04:58:46;5.10;99.90
11538;DHT22;50159;49.426;11.182;2023-04-15T05:01:13;5.10;99.90
11538;DHT22;50159;49.426;11.182;2023-04-15T05:03:40;5.20;99.90
11538;DHT22;50159;49.426;11.182;2023-04-15T05:06:07;5.20;99.90
11538;DHT22;50159;49.426;11.182;2023-04-15T05:08:34;5.30;99.90
11538;DHT22;50159;49.426;11.182;2023-04-15T05:11:02;5.30;99.90
11538;DHT22;50159;49.426;11.182;2023-04-15T05:13:29;5.30;99.90
11538;DHT22;50159;49.426;11.182;2023-04-15T05:15:56;5.30;99.90
11538;DHT22;50159;49.426;11.182;2023-04-15T05:18:22;5.40;99.90
11538;DHT22;50159;49.426;11.182;2023-04-15T05:20:49;5.40;99.90
11538;DHT22;50159;49.426;11.182;2023-04-15T05:23:16;5.40;99.90
11538;DHT22;50159;49.426;11.182;2023-04-15T05:25:43;5.40;99.90
11538;DHT22;50159;49.426;11.182;2023-04-15T05:28:10;5.50;99.90
11538;DHT22;50159;49.426;11.182;2023-04-15T05:30:38;5.50;99.90
11538;DHT22;50159;49.426;11.182;2023-04-15T05:33:05;5.60;99.90
11538;DHT22;50159;49.426;11.182;2023-04-15T05:35:32;5.60;99.90
11538;DHT22;50159;49.426;11.182;2023-04-15T05:37:59;5.60;99.90
11538;DHT22;50159;49.426;11.182;2023-04-15T05:40:26;5.70;99.90
11538;DHT22;50159;49.426;11.182;2023-04-15T05:42:53;5.70;99.90
11538;DHT22;50159;49.426;11.182;2023-04-15T05:45:20;5.70;99.90
11538;DHT22;50159;49.426;11.182;2023-04-15T05:47:46;5.70;99.90
11538;DHT22;50159;49.426;11.182;2023-04-15T05:50:15;5.80;99.90
11538;DHT22;50159;49.426;11.182;2023-04-15T05:52:42;5.80;99.90
11538;DHT22;50159;49.426;11.182;2023-04-15T05:55:09;5.80;99.90
11538;DHT22;50159;49.426;11.182;2023-04-15T05:57:36;5.80;99.90
11538;DHT22;50159;49.426;11.182;2023-04-15T06:00:06;5.80;99.90
11538;DHT22;50159;49.426;11.182;2023-04-15T06:02:33;5.90;99.90
11538;DHT22;50159;49.426;11.182;2023-04-15T06:05:00;5.90;99.90
11538;DHT22;50159;49.426;11.182;2023-04-15T06:07:27;5.90;99.90
11538;DHT22;50159;49.426;11.182;2023-04-15T06:09:54;5.90;99.90
11538;DHT22;50159;49.426;11.182;2023-04-15T06:12:21;6.00;99.90
11538;DHT22;50159;49.426;11.182;2023-04-15T06:14:48;6.00;99.90
11538;DHT22;50159;49.426;11.182;2023-04-15T06:17:14;6.00;99.90
11538;DHT22;50159;49.426;11.182;2023-04-15T06:19:44;6.00;99.90
11538;DHT22;50159;49.426;11.182;2023-04-15T06:22:10;6.00;99.90
11538;DHT22;50159;49.426;11.182;2023-04-15T06:24:37;6.10;99.90
11538;DHT22;50159;49.426;11.182;2023-04-15T06:27:04;6.10;99.90
11538;DHT22;50159;49.426;11.182;2023-04-15T06:29:31;6.20;99.90
11538;DHT22;50159;49.426;11.182;2023-04-15T06:31:57;6.20;99.90
11538;DHT22;50159;49.426;11.182;2023-04-15T06:34:24;6.20;99.90
11538;DHT22;50159;49.426;11.182;2023-04-15T06:36:51;6.20;99.90
11538;DHT22;50159;49.426;11.182;2023-04-15T06:39:20;6.30;99.90
11538;DHT22;50159;49.426;11.182;2023-04-15T06:41:46;6.30;99.90
11538;DHT22;50159;49.426;11.182;2023-04-15T06:44:13;6.40;99.90
11538;DHT22;50159;49.426;11.182;2023-04-15T06:46:40;6.90;99.90
11538;DHT22;50159;49.426;11.182;2023-04-15T06:49:07;6.40;99.90
11538;DHT22;50159;49.426;11.182;2023-04-15T06:51:34;6.50;99.90
11538;DHT22;50159;49.426;11.182;2023-04-15T06:54:02;6.60;99.90
11538;DHT22;50159;49.426;11.182;2023-04-15T06:56:32;6.70;99.90
11538;DHT22;50159;49.426;11.182;2023-04-15T06:58:59;6.70;99.90
11538;DHT22;50159;49.426;11.182;2023-04-15T07:01:26;6.70;99.90
11538;DHT22;50159;49.426;11.182;2023-04-15T07:03:53;6.80;99.90
11538;DHT22;50159;49.426;11.182;2023-04-15T07:06:20;6.80;99.90
11538;DHT22;50159;49.426;11.182;2023-04-15T07:08:47;6.90;99.90
11538;DHT22;50159;49.426;11.182;2023-04-15T07:11:14;6.90;99.90
11538;DHT22;50159;49.426;11.182;2023-04-15T07:13:41;7.00;99.90
11538;DHT22;50159;49.426;11.182;2023-04-15T07:16:07;7.00;99.90
11538;DHT22;50159;49.426;11.182;2023-04-15T07:18:34;7.00;99.90
11538;DHT22;50159;49.426;11.182;2023-04-15T07:21:01;7.00;99.90
11538;DHT22;50159;49.426;11.182;2023-04-15T07:23:28;7.10;99.90
11538;DHT22;50159;49.426;11.182;2023-04-15T07:25:55;7.10;99.90
11538;DHT22;50159;49.426;11.182;2023-04-15T07:28:22;7.20;99.90
11538;DHT22;50159;49.426;11.182;2023-04-15T07:30:49;7.30;99.90
11538;DHT22;50159;49.426;11.182;2023-04-15T07:33:16;7.30;99.90
11538;DHT22;50159;49.426;11.182;2023-04-15T07:35:42;7.40;99.90
11538;DHT22;50159;49.426;11.182;2023-04-15T07:38:10;7.50;99.90
11538;DHT22;50159;49.426;11.182;2023-04-15T07:40:40;7.60;99.90
11538;DHT22;50159;49.426;11.182;2023-04-15T07:43:08;7.70;99.90
11538;DHT22;50159;49.426;11.182;2023-04-15T07:45:35;7.80;99.90
11538;DHT22;50159;49.426;11.182;2023-04-15T07:48:02;7.90;99.90
11538;DHT22;50159;49.426;11.182;2023-04-15T07:50:29;7.90;99.90
11538;DHT22;50159;49.426;11.182;2023-04-15T07:52:56;7.90;99.90
11538;DHT22;50159;49.426;11.182;2023-04-15T07:55:23;7.80;99.90
11538;DHT22;50159;49.426;11.182;2023-04-15T07:57:51;7.70;99.90
11538;DHT22;50159;49.426;11.182;2023-04-15T08:00:18;7.70;99.90
11538;DHT22;50159;49.426;11.182;2023-04-15T08:02:45;7.60;99.90
11538;DHT22;50159;49.426;11.182;2023-04-15T08:05:14;7.60;99.90
11538;DHT22;50159;49.426;11.182;2023-04-15T08:07:41;7.60;99.90
11538;DHT22;50159;49.426;11.182;2023-04-15T08:10:08;7.60;99.90
11538;DHT22;50159;49.426;11.182;2023-04-15T08:12:35;7.60;99.90
11538;DHT22;50159;49.426;11.182;2023-04-15T08:15:03;7.60;99.90
11538;DHT22;50159;49.426;11.182;2023-04-15T08:17:30;7.70;99.90
11538;DHT22;50159;49.426;11.182;2023-04-15T08:19:56;7.80;99.90
11538;DHT22;50159;49.426;11.182;2023-04-15T08:22:23;7.80;99.90
11538;DHT22;50159;49.426;11.182;2023-04-15T08:24:50;7.70;99.90
11538;DHT22;50159;49.426;11.182;2023-04-15T08:27:18;7.80;99.90
11538;DHT22;50159;49.426;11.182;2023-04-15T08:29:45;7.70;99.90
11538;DHT22;50159;49.426;11.182;2023-04-15T08:32:12;7.70;99.90
11538;DHT22;50159;49.426;11.182;2023-04-15T08:34:39;7.70;99.90
11538;DHT22;50159;49.426;11.182;2023-04-15T08:37:06;7.60;99.90
11538;DHT22;50159;49.426;11.182;2023-04-15T08:39:32;7.50;99.90
11538;DHT22;50159;49.426;11.182;2023-04-15T08:42:01;7.50;99.90
11538;DHT22;50159;49.426;11.182;2023-04-15T08:44:32;7.40;99.90
11538;DHT22;50159;49.426;11.182;2023-04-15T08:47:02;7.40;99.90
11538;DHT22;50159;49.426;11.182;2023-04-15T08:49:36;7.40;99.90
11538;DHT22;50159;49.426;11.182;2023-04-15T08:52:06;7.40;99.90
11538;DHT22;50159;49.426;11.182;2023-04-15T08:54:34;7.40;99.90
11538;DHT22;50159;49.426;11.182;2023-04-15T08:57:02;7.40;99.90
11538;DHT22;50159;49.426;11.182;2023-04-15T08:59:29;7.30;99.90
11538;DHT22;50159;49.426;11.182;2023-04-15T09:01:57;7.40;99.90
11538;DHT22;50159;49.426;11.182;2023-04-15T09:04:24;7.40;99.90
11538;DHT22;50159;49.426;11.182;2023-04-15T09:06:51;7.50;99.90
11538;DHT22;50159;49.426;11.182;2023-04-15T09:09:18;7.60;99.90
11538;DHT22;50159;49.426;11.182;2023-04-15T09:11:45;7.70;99.90
11538;DHT22;50159;49.426;11.182;2023-04-15T09:14:11;7.80;99.90
11538;DHT22;50159;49.426;11.182;2023-04-15T09:16:57;7.90;99.90
11538;DHT22;50159;49.426;11.182;2023-04-15T09:19:29;7.90;99.90
11538;DHT22;50159;49.426;11.182;2023-04-15T09:21:58;8.00;99.90
11538;DHT22;50159;49.426;11.182;2023-04-15T09:24:34;8.10;99.90
11538;DHT22;50159;49.426;11.182;2023-04-15T09:27:06;8.20;99.90
11538;DHT22;50159;49.426;11.182;2023-04-15T09:29:33;8.30;99.90
11538;DHT22;50159;49.426;11.182;2023-04-15T09:32:13;8.40;99.90
11538;DHT22;50159;49.426;11.182;2023-04-15T09:34:42;8.50;99.90
11538;DHT22;50159;49.426;11.182;2023-04-15T09:37:09;8.50;99.90
11538;DHT22;50159;49.426;11.182;2023-04-15T09:39:50;8.50;99.90
11538;DHT22;50159;49.426;11.182;2023-04-15T09:42:17;8.60;99.90
11538;DHT22;50159;49.426;11.182;2023-04-15T09:44:52;8.60;99.90
11538;DHT22;50159;49.426;11.182;2023-04-15T09:47:29;8.50;99.90
11538;DHT22;50159;49.426;11.182;2023-04-15T09:49:58;8.50;99.90
11538;DHT22;50159;49.426;11.182;2023-04-15T09:52:26;8.50;99.90
11538;DHT22;50159;49.426;11.182;2023-04-15T09:54:56;8.40;99.90
11538;DHT22;50159;49.426;11.182;2023-04-15T09:57:24;8.40;99.90
11538;DHT22;50159;49.426;11.182;2023-04-15T09:59:51;8.30;99.90
11538;DHT22;50159;49.426;11.182;2023-04-15T10:02:18;8.10;99.90
11538;DHT22;50159;49.426;11.182;2023-04-15T10:04:50;8.00;99.90
11538;DHT22;50159;49.426;11.182;2023-04-15T10:07:19;8.00;99.90
11538;DHT22;50159;49.426;11.182;2023-04-15T10:09:48;7.90;99.90
11538;DHT22;50159;49.426;11.182;2023-04-15T10:12:16;8.00;99.90
11538;DHT22;50159;49.426;11.182;2023-04-15T10:14:44;8.00;99.90
11538;DHT22;50159;49.426;11.182;2023-04-15T10:17:21;8.00;99.90
11538;DHT22;50159;49.426;11.182;2023-04-15T10:19:52;7.90;99.90
11538;DHT22;50159;49.426;11.182;2023-04-15T10:22:22;7.80;99.90
11538;DHT22;50159;49.426;11.182;2023-04-15T10:24:51;7.70;99.90
11538;DHT22;50159;49.426;11.182;2023-04-15T10:27:19;7.60;99.90
11538;DHT22;50159;49.426;11.182;2023-04-15T10:29:49;7.50;99.90
11538;DHT22;50159;49.426;11.182;2023-04-15T10:32:20;7.50;99.90
11538;DHT22;50159;49.426;11.182;2023-04-15T10:34:49;7.40;99.90
11538;DHT22;50159;49.426;11.182;2023-04-15T10:37:38;7.40;99.90
11538;DHT22;50159;49.426;11.182;2023-04-15T10:40:30;7.40;99.90
11538;DHT22;50159;49.426;11.182;2023-04-15T10:43:01;7.40;99.90
11538;DHT22;50159;49.426;11.182;2023-04-15T10:45:36;7.40;99.90
11538;DHT22;50159;49.426;11.182;2023-04-15T10:48:06;7.40;99.90
11538;DHT22;50159;49.426;11.182;2023-04-15T10:50:33;7.30;99.90
11538;DHT22;50159;49.426;11.182;2023-04-15T10:53:03;7.30;99.90
11538;DHT22;50159;49.426;11.182;2023-04-15T10:55:32;7.40;99.90
11538;DHT22;50159;49.426;11.182;2023-04-15T10:58:00;7.40;99.90
11538;DHT22;50159;49.426;11.182;2023-04-15T11:00:29;7.50;99.90
11538;DHT22;50159;49.426;11.182;2023-04-15T11:03:07;7.50;99.90
11538;DHT22;50159;49.426;11.182;2023-04-15T11:08:09;7.90;99.90
11538;DHT22;50159;49.426;11.182;2023-04-15T11:13:06;8.30;99.90
11538;DHT22;50159;49.426;11.182;2023-04-15T11:15:46;8.60;99.90
11538;DHT22;50159;49.426;11.182;2023-04-15T11:20:48;8.70;99.90
11538;DHT22;50159;49.426;11.182;2023-04-15T11:23:18;8.70;99.90
11538;DHT22;50159;49.426;11.182;2023-04-15T11:25:54;8.70;99.90
11538;DHT22;50159;49.426;11.182;2023-04-15T11:28:26;8.60;99.90
11538;DHT22;50159;49.426;11.182;2023-04-15T11:30:56;8.50;99.90
11538;DHT22;50159;49.426;11.182;2023-04-15T11:33:24;8.40;99.90
11538;DHT22;50159;49.426;11.182;2023-04-15T11:35:52;8.30;99.90
11538;DHT22;50159;49.426;11.182;2023-04-15T11:38:22;8.20;99.90
11538;DHT22;50159;49.426;11.182;2023-04-15T11:40:49;8.20;99.90
11538;DHT22;50159;49.426;11.182;2023-04-15T11:43:21;8.20;99.90
11538;DHT22;50159;49.426;11.182;2023-04-15T11:48:44;8.20;99.90
11538;DHT22;50159;49.426;11.182;2023-04-15T11:51:13;8.20;99.90
11538;DHT22;50159;49.426;11.182;2023-04-15T11:53:48;8.40;99.90
11538;DHT22;50159;49.426;11.182;2023-04-15T11:56:20;8.60;99.90
11538;DHT22;50159;49.426;11.182;2023-04-15T11:58:56;8.80;99.90
11538;DHT22;50159;49.426;11.182;2023-04-15T12:01:38;8.80;99.90
11538;DHT22;50159;49.426;11.182;2023-04-15T12:04:12;8.80;99.90
11538;DHT22;50159;49.426;11.182;2023-04-15T12:06:40;8.70;99.90
11538;DHT22;50159;49.426;11.182;2023-04-15T12:09:09;8.50;99.90
11538;DHT22;50159;49.426;11.182;2023-04-15T12:11:55;8.40;99.90
11538;DHT22;50159;49.426;11.182;2023-04-15T12:14:28;8.40;99.90
11538;DHT22;50159;49.426;11.182;2023-04-15T12:16:58;8.40;99.90
11538;DHT22;50159;49.426;11.182;2023-04-15T12:19:28;8.50;99.90
11538;DHT22;50159;49.426;11.182;2023-04-15T12:22:14;8.60;99.90
11538;DHT22;50159;49.426;11.182;2023-04-15T12:24:43;8.70;99.90
11538;DHT22;50159;49.426;11.182;2023-04-15T12:27:15;8.80;99.90
11538;DHT22;50159;49.426;11.182;2023-04-15T12:29:43;8.80;99.90
11538;DHT22;50159;49.426;11.182;2023-04-15T12:32:13;8.80;99.90
11538;DHT22;50159;49.426;11.182;2023-04-15T12:34:51;8.80;99.90
11538;DHT22;50159;49.426;11.182;2023-04-15T12:37:22;8.70;99.90
11538;DHT22;50159;49.426;11.182;2023-04-15T12:39:50;8.70;99.90
11538;DHT22;50159;49.426;11.182;2023-04-15T12:42:17;8.70;99.90
11538;DHT22;50159;49.426;11.182;2023-04-15T12:44:45;8.60;99.90
11538;DHT22;50159;49.426;11.182;2023-04-15T12:47:12;8.50;99.90
11538;DHT22;50159;49.426;11.182;2023-04-15T12:49:39;8.50;99.90
11538;DHT22;50159;49.426;11.182;2023-04-15T12:52:06;8.40;99.90
11538;DHT22;50159;49.426;11.182;2023-04-15T12:54:33;8.30;99.90
11538;DHT22;50159;49.426;11.182;2023-04-15T12:57:01;8.40;99.90
11538;DHT22;50159;49.426;11.182;2023-04-15T12:59:32;8.50;99.90
11538;DHT22;50159;49.426;11.182;2023-04-15T13:01:59;8.60;99.90
11538;DHT22;50159;49.426;11.182;2023-04-15T13:04:26;8.90;99.90
11538;DHT22;50159;49.426;11.182;2023-04-15T13:06:56;9.10;99.90
11538;DHT22;50159;49.426;11.182;2023-04-15T13:09:23;9.20;99.90
11538;DHT22;50159;49.426;11.182;2023-04-15T13:11:50;9.30;99.90
11538;DHT22;50159;49.426;11.182;2023-04-15T13:14:16;9.40;99.90
11538;DHT22;50159;49.426;11.182;2023-04-15T13:16:43;9.40;99.90
11538;DHT22;50159;49.426;11.182;2023-04-15T13:19:10;9.40;99.90
11538;DHT22;50159;49.426;11.182;2023-04-15T13:21:37;9.30;99.90
11538;DHT22;50159;49.426;11.182;2023-04-15T13:24:03;9.20;99.90
11538;DHT22;50159;49.426;11.182;2023-04-15T13:26:32;9.20;99.90
11538;DHT22;50159;49.426;11.182;2023-04-15T13:29:00;9.10;99.90
11538;DHT22;50159;49.426;11.182;2023-04-15T13:31:27;9.10;99.90
11538;DHT22;50159;49.426;11.182;2023-04-15T13:33:56;9.10;99.90
11538;DHT22;50159;49.426;11.182;2023-04-15T13:36:22;9.20;99.90
11538;DHT22;50159;49.426;11.182;2023-04-15T13:38:49;9.30;99.90
11538;DHT22;50159;49.426;11.182;2023-04-15T13:41:17;9.40;99.90
11538;DHT22;50159;49.426;11.182;2023-04-15T13:43:44;9.50;99.90
11538;DHT22;50159;49.426;11.182;2023-04-15T13:46:11;9.50;99.90
11538;DHT22;50159;49.426;11.182;2023-04-15T13:48:38;9.40;99.90
11538;DHT22;50159;49.426;11.182;2023-04-15T13:51:05;9.30;99.90
11538;DHT22;50159;49.426;11.182;2023-04-15T13:53:32;9.20;99.90
11538;DHT22;50159;49.426;11.182;2023-04-15T13:56:06;9.00;99.90
11538;DHT22;50159;49.426;11.182;2023-04-15T13:58:34;8.90;99.90
11538;DHT22;50159;49.426;11.182;2023-04-15T14:01:02;8.90;99.90
11538;DHT22;50159;49.426;11.182;2023-04-15T14:03:32;8.80;99.90
11538;DHT22;50159;49.426;11.182;2023-04-15T14:06:00;8.80;99.90
11538;DHT22;50159;49.426;11.182;2023-04-15T14:08:29;8.80;99.90
11538;DHT22;50159;49.426;11.182;2023-04-15T14:10:56;8.70;99.90
11538;DHT22;50159;49.426;11.182;2023-04-15T14:13:23;8.70;99.90
11538;DHT22;50159;49.426;11.182;2023-04-15T14:15:50;8.80;99.90
11538;DHT22;50159;49.426;11.182;2023-04-15T14:18:17;8.80;99.90
11538;DHT22;50159;49.426;11.182;2023-04-15T14:20:43;8.90;99.90
11538;DHT22;50159;49.426;11.182;2023-04-15T14:23:10;8.90;99.90
11538;DHT22;50159;49.426;11.182;2023-04-15T14:25:37;8.90;99.90
11538;DHT22;50159;49.426;11.182;2023-04-15T14:28:13;8.90;99.90
11538;DHT22;50159;49.426;11.182;2023-04-15T14:30:40;8.90;99.90
11538;DHT22;50159;49.426;11.182;2023-04-15T14:33:06;8.80;99.90
11538;DHT22;50159;49.426;11.182;2023-04-15T14:35:33;8.80;99.90
11538;DHT22;50159;49.426;11.182;2023-04-15T14:38:00;8.80;99.90
11538;DHT22;50159;49.426;11.182;2023-04-15T14:40:26;8.70;99.90
11538;DHT22;50159;49.426;11.182;2023-04-15T14:42:53;8.70;99.90
11538;DHT22;50159;49.426;11.182;2023-04-15T14:45:20;8.60;99.90
11538;DHT22;50159;49.426;11.182;2023-04-15T14:47:46;8.50;99.90
11538;DHT22;50159;49.426;11.182;2023-04-15T14:50:13;8.50;99.90
11538;DHT22;50159;49.426;11.182;2023-04-15T14:52:40;8.40;99.90
11538;DHT22;50159;49.426;11.182;2023-04-15T14:55:08;8.40;99.90
11538;DHT22;50159;49.426;11.182;2023-04-15T14:57:39;8.40;99.90
11538;DHT22;50159;49.426;11.182;2023-04-15T15:00:08;8.40;99.90
11538;DHT22;50159;49.426;11.182;2023-04-15T15:02:37;8.30;99.90
11538;DHT22;50159;49.426;11.182;2023-04-15T15:05:07;8.30;99.90
11538;DHT22;50159;49.426;11.182;2023-04-15T15:07:34;8.30;99.90
11538;DHT22;50159;49.426;11.182;2023-04-15T15:10:03;8.30;99.90
11538;DHT22;50159;49.426;11.182;2023-04-15T15:12:30;8.20;99.90
11538;DHT22;50159;49.426;11.182;2023-04-15T15:14:57;8.20;99.90
11538;DHT22;50159;49.426;11.182;2023-04-15T15:17:24;8.20;99.90
11538;DHT22;50159;49.426;11.182;2023-04-15T15:19:51;8.10;99.90
11538;DHT22;50159;49.426;11.182;2023-04-15T15:22:17;8.20;99.90
11538;DHT22;50159;49.426;11.182;2023-04-15T15:24:47;8.20;99.90
11538;DHT22;50159;49.426;11.182;2023-04-15T15:27:13;8.20;99.90
11538;DHT22;50159;49.426;11.182;2023-04-15T15:29:40;8.20;99.90
11538;DHT22;50159;49.426;11.182;2023-04-15T15:32:07;8.20;99.90
11538;DHT22;50159;49.426;11.182;2023-04-15T15:34:33;8.20;99.90
11538;DHT22;50159;49.426;11.182;2023-04-15T15:37:00;8.20;99.90
11538;DHT22;50159;49.426;11.182;2023-04-15T15:39:27;8.20;99.90
11538;DHT22;50159;49.426;11.182;2023-04-15T15:41:54;8.30;99.90
11538;DHT22;50159;49.426;11.182;2023-04-15T15:44:20;8.30;99.90
11538;DHT22;50159;49.426;11.182;2023-04-15T15:46:48;8.30;99.90